sensor_id;sensor_type;location;lat;lon;timestamp;pressure;altitude;pressure_sealevel;temperature
33877;BMP180;20166;51.738;7.158;2024-01-06T00:00:32;99640.00;;;7.50
33877;BMP180;20166;51.738;7.158;2024-01-06T00:03:18;99646.00;;;7.50
33877;BMP180;20166;51.738;7.158;2024-01-06T00:06:05;99642.00;;;7.50
33877;BMP180;20166;51.738;7.158;2024-01-06T00:08:52;99640.00;;;7.40
33877;BMP180;20166;51.738;7.158;2024-01-06T00:11:41;99646.00;;;7.40
33877;BMP180;20166;51.738;7.158;2024-01-06T00:14:28;99649.00;;;7.40
33877;BMP180;20166;51.738;7.158;2024-01-06T00:17:15;99647.00;;;7.50
33877;BMP180;20166;51.738;7.158;2024-01-06T00:20:02;99652.00;;;7.50
33877;BMP180;20166;51.738;7.158;2024-01-06T00:22:49;99649.00;;;7.50
33877;BMP180;20166;51.738;7.158;2024-01-06T00:25:35;99661.00;;;7.40
33877;BMP180;20166;51.738;7.158;2024-01-06T00:28:23;99657.00;;;7.40
33877;BMP180;20166;51.738;7.158;2024-01-06T00:31:09;99670.00;;;7.40
33877;BMP180;20166;51.738;7.158;2024-01-06T00:33:55;99665.00;;;7.40
33877;BMP180;20166;51.738;7.158;2024-01-06T00:36:42;99662.00;;;7.40
33877;BMP180;20166;51.738;7.158;2024-01-06T00:39:29;99661.00;;;7.50
33877;BMP180;20166;51.738;7.158;2024-01-06T00:42:15;99664.00;;;7.40
33877;BMP180;20166;51.738;7.158;2024-01-06T00:45:03;99661.00;;;7.40
33877;BMP180;20166;51.738;7.158;2024-01-06T00:47:50;99665.00;;;7.40
33877;BMP180;20166;51.738;7.158;2024-01-06T00:50:37;99670.00;;;7.40
33877;BMP180;20166;51.738;7.158;2024-01-06T00:53:23;99677.00;;;7.50
33877;BMP180;20166;51.738;7.158;2024-01-06T00:56:09;99665.00;;;7.50
33877;BMP180;20166;51.738;7.158;2024-01-06T00:58:56;99677.00;;;7.50
33877;BMP180;20166;51.738;7.158;2024-01-06T01:01:44;99682.00;;;7.50
33877;BMP180;20166;51.738;7.158;2024-01-06T01:04:30;99686.00;;;7.50
33877;BMP180;20166;51.738;7.158;2024-01-06T01:07:16;99685.00;;;7.60
33877;BMP180;20166;51.738;7.158;2024-01-06T01:10:03;99692.00;;;7.60
33877;BMP180;20166;51.738;7.158;2024-01-06T01:12:50;99697.00;;;7.50
33877;BMP180;20166;51.738;7.158;2024-01-06T01:15:37;99708.00;;;7.50
33877;BMP180;20166;51.738;7.158;2024-01-06T01:18:25;99708.00;;;7.40
33877;BMP180;20166;51.738;7.158;2024-01-06T01:21:11;99713.00;;;7.40
33877;BMP180;20166;51.738;7.158;2024-01-06T01:23:57;99711.00;;;7.40
33877;BMP180;20166;51.738;7.158;2024-01-06T01:26:44;99715.00;;;7.40
33877;BMP180;20166;51.738;7.158;2024-01-06T01:29:30;99717.00;;;7.40
33877;BMP180;20166;51.738;7.158;2024-01-06T01:32:16;99715.00;;;7.30
33877;BMP180;20166;51.738;7.158;2024-01-06T01:35:07;99721.00;;;7.30
33877;BMP180;20166;51.738;7.158;2024-01-06T01:37:53;99735.00;;;7.40
33877;BMP180;20166;51.738;7.158;2024-01-06T01:40:40;99737.00;;;7.30
33877;BMP180;20166;51.738;7.158;2024-01-06T01:43:26;99733.00;;;7.30
33877;BMP180;20166;51.738;7.158;2024-01-06T01:46:14;99730.00;;;7.20
33877;BMP180;20166;51.738;7.158;2024-01-06T01:49:01;99734.00;;;7.30
33877;BMP180;20166;51.738;7.158;2024-01-06T01:51:50;99739.00;;;7.30
33877;BMP180;20166;51.738;7.158;2024-01-06T01:54:36;99751.00;;;7.20
33877;BMP180;20166;51.738;7.158;2024-01-06T01:57:24;99745.00;;;7.20
33877;BMP180;20166;51.738;7.158;2024-01-06T02:00:12;99748.00;;;7.20
33877;BMP180;20166;51.738;7.158;2024-01-06T02:02:59;99752.00;;;7.20
33877;BMP180;20166;51.738;7.158;2024-01-06T02:05:45;99749.00;;;7.20
33877;BMP180;20166;51.738;7.158;2024-01-06T02:08:33;99752.00;;;7.20
33877;BMP180;20166;51.738;7.158;2024-01-06T02:11:19;99755.00;;;7.20
33877;BMP180;20166;51.738;7.158;2024-01-06T02:14:05;99759.00;;;7.20
33877;BMP180;20166;51.738;7.158;2024-01-06T02:16:51;99759.00;;;7.20
33877;BMP180;20166;51.738;7.158;2024-01-06T02:19:38;99760.00;;;7.20
33877;BMP180;20166;51.738;7.158;2024-01-06T02:22:26;99758.00;;;7.10
33877;BMP180;20166;51.738;7.158;2024-01-06T02:25:12;99756.00;;;7.10
33877;BMP180;20166;51.738;7.158;2024-01-06T02:27:58;99767.00;;;7.10
33877;BMP180;20166;51.738;7.158;2024-01-06T02:30:44;99769.00;;;7.10
33877;BMP180;20166;51.738;7.158;2024-01-06T02:33:31;99768.00;;;7.00
33877;BMP180;20166;51.738;7.158;2024-01-06T02:36:18;99782.00;;;7.10
33877;BMP180;20166;51.738;7.158;2024-01-06T02:39:06;99787.00;;;7.00
33877;BMP180;20166;51.738;7.158;2024-01-06T02:41:52;99796.00;;;7.00
33877;BMP180;20166;51.738;7.158;2024-01-06T02:44:38;99804.00;;;7.00
33877;BMP180;20166;51.738;7.158;2024-01-06T02:47:25;99807.00;;;7.00
33877;BMP180;20166;51.738;7.158;2024-01-06T02:50:11;99808.00;;;6.90
33877;BMP180;20166;51.738;7.158;2024-01-06T02:52:57;99810.00;;;6.90
33877;BMP180;20166;51.738;7.158;2024-01-06T02:55:45;99826.00;;;6.90
33877;BMP180;20166;51.738;7.158;2024-01-06T02:58:31;99830.00;;;6.80
33877;BMP180;20166;51.738;7.158;2024-01-06T03:01:17;99827.00;;;6.80
33877;BMP180;20166;51.738;7.158;2024-01-06T03:04:04;99833.00;;;6.90
33877;BMP180;20166;51.738;7.158;2024-01-06T03:06:50;99835.00;;;6.80
33877;BMP180;20166;51.738;7.158;2024-01-06T03:09:38;99838.00;;;6.70
33877;BMP180;20166;51.738;7.158;2024-01-06T03:12:26;99842.00;;;6.70
33877;BMP180;20166;51.738;7.158;2024-01-06T03:15:13;99849.00;;;6.70
33877;BMP180;20166;51.738;7.158;2024-01-06T03:17:59;99847.00;;;6.70
33877;BMP180;20166;51.738;7.158;2024-01-06T03:20:45;99852.00;;;6.70
33877;BMP180;20166;51.738;7.158;2024-01-06T03:23:31;99854.00;;;6.70
33877;BMP180;20166;51.738;7.158;2024-01-06T03:26:18;99849.00;;;6.70
33877;BMP180;20166;51.738;7.158;2024-01-06T03:29:06;99856.00;;;6.70
33877;BMP180;20166;51.738;7.158;2024-01-06T03:31:52;99859.00;;;6.70
33877;BMP180;20166;51.738;7.158;2024-01-06T03:34:38;99866.00;;;6.70
33877;BMP180;20166;51.738;7.158;2024-01-06T03:37:24;99860.00;;;6.70
33877;BMP180;20166;51.738;7.158;2024-01-06T03:40:12;99870.00;;;6.80
33877;BMP180;20166;51.738;7.158;2024-01-06T03:42:58;99864.00;;;6.80
33877;BMP180;20166;51.738;7.158;2024-01-06T03:45:46;99880.00;;;6.70
33877;BMP180;20166;51.738;7.158;2024-01-06T03:48:33;99867.00;;;6.60
33877;BMP180;20166;51.738;7.158;2024-01-06T03:51:19;99879.00;;;6.50
33877;BMP180;20166;51.738;7.158;2024-01-06T03:54:06;99876.00;;;6.50
33877;BMP180;20166;51.738;7.158;2024-01-06T03:56:53;99892.00;;;6.60
33877;BMP180;20166;51.738;7.158;2024-01-06T03:59:39;99902.00;;;6.60
33877;BMP180;20166;51.738;7.158;2024-01-06T04:02:27;99890.00;;;6.50
33877;BMP180;20166;51.738;7.158;2024-01-06T04:05:13;99893.00;;;6.40
33877;BMP180;20166;51.738;7.158;2024-01-06T04:08:00;99899.00;;;6.40
33877;BMP180;20166;51.738;7.158;2024-01-06T04:10:46;99899.00;;;6.40
33877;BMP180;20166;51.738;7.158;2024-01-06T04:13:33;99908.00;;;6.40
33877;BMP180;20166;51.738;7.158;2024-01-06T04:16:19;99900.00;;;6.40
33877;BMP180;20166;51.738;7.158;2024-01-06T04:19:07;99903.00;;;6.40
33877;BMP180;20166;51.738;7.158;2024-01-06T04:21:56;99908.00;;;6.50
33877;BMP180;20166;51.738;7.158;2024-01-06T04:24:42;99908.00;;;6.40
33877;BMP180;20166;51.738;7.158;2024-01-06T04:27:28;99908.00;;;6.40
33877;BMP180;20166;51.738;7.158;2024-01-06T04:30:17;99912.00;;;6.50
33877;BMP180;20166;51.738;7.158;2024-01-06T04:33:04;99908.00;;;6.40
33877;BMP180;20166;51.738;7.158;2024-01-06T04:35:52;99920.00;;;6.40
33877;BMP180;20166;51.738;7.158;2024-01-06T04:38:39;99922.00;;;6.40
33877;BMP180;20166;51.738;7.158;2024-01-06T04:41:25;99918.00;;;6.30
33877;BMP180;20166;51.738;7.158;2024-01-06T04:44:12;99913.00;;;6.30
33877;BMP180;20166;51.738;7.158;2024-01-06T04:46:58;99922.00;;;6.30
33877;BMP180;20166;51.738;7.158;2024-01-06T04:49:45;99919.00;;;6.30
33877;BMP180;20166;51.738;7.158;2024-01-06T04:52:32;99919.00;;;6.30
33877;BMP180;20166;51.738;7.158;2024-01-06T04:55:19;99917.00;;;6.30
33877;BMP180;20166;51.738;7.158;2024-01-06T04:58:05;99933.00;;;6.20
33877;BMP180;20166;51.738;7.158;2024-01-06T05:00:52;99928.00;;;6.20
33877;BMP180;20166;51.738;7.158;2024-01-06T05:03:38;99930.00;;;6.30
33877;BMP180;20166;51.738;7.158;2024-01-06T05:06:25;99943.00;;;6.20
33877;BMP180;20166;51.738;7.158;2024-01-06T05:09:13;99943.00;;;6.30
33877;BMP180;20166;51.738;7.158;2024-01-06T05:11:59;99946.00;;;6.20
33877;BMP180;20166;51.738;7.158;2024-01-06T05:14:45;99957.00;;;6.20
33877;BMP180;20166;51.738;7.158;2024-01-06T05:17:32;99957.00;;;6.10
33877;BMP180;20166;51.738;7.158;2024-01-06T05:20:18;99957.00;;;6.10
33877;BMP180;20166;51.738;7.158;2024-01-06T05:23:04;99962.00;;;6.10
33877;BMP180;20166;51.738;7.158;2024-01-06T05:25:52;99962.00;;;6.10
33877;BMP180;20166;51.738;7.158;2024-01-06T05:28:38;99965.00;;;6.00
33877;BMP180;20166;51.738;7.158;2024-01-06T05:31:25;99963.00;;;6.10
33877;BMP180;20166;51.738;7.158;2024-01-06T05:34:12;99964.00;;;6.00
33877;BMP180;20166;51.738;7.158;2024-01-06T05:36:58;99973.00;;;6.00
33877;BMP180;20166;51.738;7.158;2024-01-06T05:39:44;99976.00;;;6.10
33877;BMP180;20166;51.738;7.158;2024-01-06T05:42:32;99978.00;;;6.00
33877;BMP180;20166;51.738;7.158;2024-01-06T05:45:18;99979.00;;;6.00
33877;BMP180;20166;51.738;7.158;2024-01-06T05:48:08;99986.00;;;6.10
33877;BMP180;20166;51.738;7.158;2024-01-06T05:50:55;99981.00;;;6.00
33877;BMP180;20166;51.738;7.158;2024-01-06T05:53:41;99989.00;;;5.90
33877;BMP180;20166;51.738;7.158;2024-01-06T05:56:28;99988.00;;;5.90
33877;BMP180;20166;51.738;7.158;2024-01-06T05:59:15;99998.00;;;5.80
33877;BMP180;20166;51.738;7.158;2024-01-06T06:02:02;99992.00;;;5.70
33877;BMP180;20166;51.738;7.158;2024-01-06T06:04:49;100006.00;;;5.70
33877;BMP180;20166;51.738;7.158;2024-01-06T06:07:35;100005.00;;;5.70
33877;BMP180;20166;51.738;7.158;2024-01-06T06:10:23;100012.00;;;5.70
33877;BMP180;20166;51.738;7.158;2024-01-06T06:13:14;100027.00;;;5.60
33877;BMP180;20166;51.738;7.158;2024-01-06T06:16:03;100022.00;;;5.60
33877;BMP180;20166;51.738;7.158;2024-01-06T06:18:49;100028.00;;;5.60
33877;BMP180;20166;51.738;7.158;2024-01-06T06:21:36;100030.00;;;5.70
33877;BMP180;20166;51.738;7.158;2024-01-06T06:24:22;100039.00;;;5.60
33877;BMP180;20166;51.738;7.158;2024-01-06T06:27:08;100034.00;;;5.60
33877;BMP180;20166;51.738;7.158;2024-01-06T06:29:55;100039.00;;;5.60
33877;BMP180;20166;51.738;7.158;2024-01-06T06:32:43;100046.00;;;5.50
33877;BMP180;20166;51.738;7.158;2024-01-06T06:35:30;100052.00;;;5.50
33877;BMP180;20166;51.738;7.158;2024-01-06T06:38:16;100064.00;;;5.50
33877;BMP180;20166;51.738;7.158;2024-01-06T06:41:03;100077.00;;;5.50
33877;BMP180;20166;51.738;7.158;2024-01-06T06:43:50;100080.00;;;5.50
33877;BMP180;20166;51.738;7.158;2024-01-06T06:46:36;100083.00;;;5.50
33877;BMP180;20166;51.738;7.158;2024-01-06T06:49:24;100081.00;;;5.60
33877;BMP180;20166;51.738;7.158;2024-01-06T06:52:10;100092.00;;;5.50
33877;BMP180;20166;51.738;7.158;2024-01-06T06:54:58;100089.00;;;5.40
33877;BMP180;20166;51.738;7.158;2024-01-06T06:57:45;100095.00;;;5.50
33877;BMP180;20166;51.738;7.158;2024-01-06T07:00:31;100104.00;;;5.40
33877;BMP180;20166;51.738;7.158;2024-01-06T07:03:18;100110.00;;;5.40
33877;BMP180;20166;51.738;7.158;2024-01-06T07:06:06;100120.00;;;5.30
33877;BMP180;20166;51.738;7.158;2024-01-06T07:08:52;100118.00;;;5.40
33877;BMP180;20166;51.738;7.158;2024-01-06T07:11:38;100118.00;;;5.30
33877;BMP180;20166;51.738;7.158;2024-01-06T07:14:25;100133.00;;;5.10
33877;BMP180;20166;51.738;7.158;2024-01-06T07:17:11;100134.00;;;5.10
33877;BMP180;20166;51.738;7.158;2024-01-06T07:19:57;100134.00;;;5.10
33877;BMP180;20166;51.738;7.158;2024-01-06T07:22:45;100143.00;;;5.00
33877;BMP180;20166;51.738;7.158;2024-01-06T07:25:31;100142.00;;;5.00
33877;BMP180;20166;51.738;7.158;2024-01-06T07:28:17;100146.00;;;5.00
33877;BMP180;20166;51.738;7.158;2024-01-06T07:31:04;100148.00;;;5.00
33877;BMP180;20166;51.738;7.158;2024-01-06T07:33:51;100168.00;;;5.00
33877;BMP180;20166;51.738;7.158;2024-01-06T07:36:37;100167.00;;;5.00
33877;BMP180;20166;51.738;7.158;2024-01-06T07:39:26;100168.00;;;5.10
33877;BMP180;20166;51.738;7.158;2024-01-06T07:42:12;100178.00;;;5.00
33877;BMP180;20166;51.738;7.158;2024-01-06T07:44:58;100173.00;;;5.00
33877;BMP180;20166;51.738;7.158;2024-01-06T07:47:45;100177.00;;;5.00
33877;BMP180;20166;51.738;7.158;2024-01-06T07:50:31;100183.00;;;4.90
33877;BMP180;20166;51.738;7.158;2024-01-06T07:53:18;100187.00;;;4.90
33877;BMP180;20166;51.738;7.158;2024-01-06T07:56:06;100184.00;;;4.90
33877;BMP180;20166;51.738;7.158;2024-01-06T07:58:53;100197.00;;;5.00
33877;BMP180;20166;51.738;7.158;2024-01-06T08:01:40;100195.00;;;5.00
33877;BMP180;20166;51.738;7.158;2024-01-06T08:04:27;100204.00;;;5.00
33877;BMP180;20166;51.738;7.158;2024-01-06T08:07:14;100195.00;;;5.00
33877;BMP180;20166;51.738;7.158;2024-01-06T08:10:01;100212.00;;;4.90
33877;BMP180;20166;51.738;7.158;2024-01-06T08:12:51;100211.00;;;5.00
33877;BMP180;20166;51.738;7.158;2024-01-06T08:15:39;100212.00;;;4.90
33877;BMP180;20166;51.738;7.158;2024-01-06T08:18:25;100220.00;;;4.80
33877;BMP180;20166;51.738;7.158;2024-01-06T08:21:12;100225.00;;;4.90
33877;BMP180;20166;51.738;7.158;2024-01-06T08:23:58;100231.00;;;4.90
33877;BMP180;20166;51.738;7.158;2024-01-06T08:26:45;100232.00;;;4.80
33877;BMP180;20166;51.738;7.158;2024-01-06T08:29:32;100237.00;;;4.90
33877;BMP180;20166;51.738;7.158;2024-01-06T08:32:19;100240.00;;;4.90
33877;BMP180;20166;51.738;7.158;2024-01-06T08:35:06;100250.00;;;4.90
33877;BMP180;20166;51.738;7.158;2024-01-06T08:37:53;100251.00;;;4.90
33877;BMP180;20166;51.738;7.158;2024-01-06T08:40:40;100248.00;;;4.80
33877;BMP180;20166;51.738;7.158;2024-01-06T08:43:26;100255.00;;;4.90
33877;BMP180;20166;51.738;7.158;2024-01-06T08:46:14;100259.00;;;4.80
33877;BMP180;20166;51.738;7.158;2024-01-06T08:49:00;100259.00;;;4.80
33877;BMP180;20166;51.738;7.158;2024-01-06T08:51:49;100264.00;;;4.90
33877;BMP180;20166;51.738;7.158;2024-01-06T08:54:36;100268.00;;;4.80
33877;BMP180;20166;51.738;7.158;2024-01-06T08:57:22;100271.00;;;4.80
33877;BMP180;20166;51.738;7.158;2024-01-06T09:00:09;100287.00;;;4.70
33877;BMP180;20166;51.738;7.158;2024-01-06T09:02:57;100287.00;;;4.60
33877;BMP180;20166;51.738;7.158;2024-01-06T09:05:45;100288.00;;;4.60
33877;BMP180;20166;51.738;7.158;2024-01-06T09:08:31;100309.00;;;4.60
33877;BMP180;20166;51.738;7.158;2024-01-06T09:11:17;100299.00;;;4.70
33877;BMP180;20166;51.738;7.158;2024-01-06T09:14:04;100309.00;;;4.60
33877;BMP180;20166;51.738;7.158;2024-01-06T09:16:50;100325.00;;;4.60
33877;BMP180;20166;51.738;7.158;2024-01-06T09:19:38;100312.00;;;4.50
33877;BMP180;20166;51.738;7.158;2024-01-06T09:22:24;100335.00;;;4.50
33877;BMP180;20166;51.738;7.158;2024-01-06T09:25:10;100335.00;;;4.50
33877;BMP180;20166;51.738;7.158;2024-01-06T09:27:58;100335.00;;;4.60
33877;BMP180;20166;51.738;7.158;2024-01-06T09:30:44;100339.00;;;4.50
33877;BMP180;20166;51.738;7.158;2024-01-06T09:33:31;100347.00;;;4.50
33877;BMP180;20166;51.738;7.158;2024-01-06T09:36:20;100352.00;;;4.50
33877;BMP180;20166;51.738;7.158;2024-01-06T09:39:06;100344.00;;;4.60
33877;BMP180;20166;51.738;7.158;2024-01-06T09:41:53;100356.00;;;4.60
33877;BMP180;20166;51.738;7.158;2024-01-06T09:44:39;100365.00;;;4.60
33877;BMP180;20166;51.738;7.158;2024-01-06T09:47:27;100365.00;;;4.70
33877;BMP180;20166;51.738;7.158;2024-01-06T09:50:17;100368.00;;;4.60
33877;BMP180;20166;51.738;7.158;2024-01-06T09:53:08;100378.00;;;4.60
33877;BMP180;20166;51.738;7.158;2024-01-06T09:55:56;100371.00;;;4.60
33877;BMP180;20166;51.738;7.158;2024-01-06T09:58:43;100382.00;;;4.60
33877;BMP180;20166;51.738;7.158;2024-01-06T10:01:30;100380.00;;;4.60
33877;BMP180;20166;51.738;7.158;2024-01-06T10:04:16;100383.00;;;4.60
33877;BMP180;20166;51.738;7.158;2024-01-06T10:07:07;100383.00;;;4.60
33877;BMP180;20166;51.738;7.158;2024-01-06T10:09:58;100394.00;;;4.50
33877;BMP180;20166;51.738;7.158;2024-01-06T10:12:45;100391.00;;;4.50
33877;BMP180;20166;51.738;7.158;2024-01-06T10:15:35;100401.00;;;4.50
33877;BMP180;20166;51.738;7.158;2024-01-06T10:18:21;100404.00;;;4.50
33877;BMP180;20166;51.738;7.158;2024-01-06T10:21:08;100402.00;;;4.50
33877;BMP180;20166;51.738;7.158;2024-01-06T10:23:54;100412.00;;;4.50
33877;BMP180;20166;51.738;7.158;2024-01-06T10:26:42;100407.00;;;4.60
33877;BMP180;20166;51.738;7.158;2024-01-06T10:29:28;100413.00;;;4.60
33877;BMP180;20166;51.738;7.158;2024-01-06T10:32:14;100418.00;;;4.40
33877;BMP180;20166;51.738;7.158;2024-01-06T10:35:02;100420.00;;;4.40
33877;BMP180;20166;51.738;7.158;2024-01-06T10:37:51;100413.00;;;4.30
33877;BMP180;20166;51.738;7.158;2024-01-06T10:40:38;100416.00;;;4.30
33877;BMP180;20166;51.738;7.158;2024-01-06T10:43:26;100424.00;;;4.40
33877;BMP180;20166;51.738;7.158;2024-01-06T10:46:14;100425.00;;;4.40
33877;BMP180;20166;51.738;7.158;2024-01-06T10:49:02;100428.00;;;4.40
33877;BMP180;20166;51.738;7.158;2024-01-06T10:51:49;100430.00;;;4.40
33877;BMP180;20166;51.738;7.158;2024-01-06T10:54:38;100425.00;;;4.40
33877;BMP180;20166;51.738;7.158;2024-01-06T10:57:25;100434.00;;;4.50
33877;BMP180;20166;51.738;7.158;2024-01-06T11:00:15;100425.00;;;4.40
33877;BMP180;20166;51.738;7.158;2024-01-06T11:03:03;100427.00;;;4.30
33877;BMP180;20166;51.738;7.158;2024-01-06T11:05:50;100428.00;;;4.30
33877;BMP180;20166;51.738;7.158;2024-01-06T11:08:43;100428.00;;;4.40
33877;BMP180;20166;51.738;7.158;2024-01-06T11:11:35;100431.00;;;4.40
33877;BMP180;20166;51.738;7.158;2024-01-06T11:14:23;100440.00;;;4.50
33877;BMP180;20166;51.738;7.158;2024-01-06T11:17:11;100433.00;;;4.40
33877;BMP180;20166;51.738;7.158;2024-01-06T11:20:05;100422.00;;;4.40
33877;BMP180;20166;51.738;7.158;2024-01-06T11:22:51;100420.00;;;4.50
33877;BMP180;20166;51.738;7.158;2024-01-06T11:25:40;100430.00;;;4.50
33877;BMP180;20166;51.738;7.158;2024-01-06T11:28:27;100439.00;;;4.30
33877;BMP180;20166;51.738;7.158;2024-01-06T11:31:13;100434.00;;;4.20
33877;BMP180;20166;51.738;7.158;2024-01-06T11:34:12;100427.00;;;4.40
33877;BMP180;20166;51.738;7.158;2024-01-06T11:36:59;100420.00;;;4.40
33877;BMP180;20166;51.738;7.158;2024-01-06T11:39:46;100431.00;;;4.40
33877;BMP180;20166;51.738;7.158;2024-01-06T11:42:33;100422.00;;;4.40
33877;BMP180;20166;51.738;7.158;2024-01-06T11:45:20;100428.00;;;4.40
33877;BMP180;20166;51.738;7.158;2024-01-06T11:48:10;100429.00;;;4.50
33877;BMP180;20166;51.738;7.158;2024-01-06T11:50:59;100434.00;;;4.50
33877;BMP180;20166;51.738;7.158;2024-01-06T11:53:45;100425.00;;;4.30
33877;BMP180;20166;51.738;7.158;2024-01-06T11:56:32;100423.00;;;4.30
33877;BMP180;20166;51.738;7.158;2024-01-06T11:59:18;100430.00;;;4.40
33877;BMP180;20166;51.738;7.158;2024-01-06T12:02:05;100426.00;;;4.30
33877;BMP180;20166;51.738;7.158;2024-01-06T12:04:52;100432.00;;;4.30
33877;BMP180;20166;51.738;7.158;2024-01-06T12:07:40;100437.00;;;4.30
33877;BMP180;20166;51.738;7.158;2024-01-06T12:10:28;100438.00;;;4.30
33877;BMP180;20166;51.738;7.158;2024-01-06T12:13:15;100444.00;;;4.30
33877;BMP180;20166;51.738;7.158;2024-01-06T12:16:04;100435.00;;;4.20
33877;BMP180;20166;51.738;7.158;2024-01-06T12:18:51;100436.00;;;4.30
33877;BMP180;20166;51.738;7.158;2024-01-06T12:21:37;100444.00;;;4.10
33877;BMP180;20166;51.738;7.158;2024-01-06T12:24:27;100441.00;;;4.00
33877;BMP180;20166;51.738;7.158;2024-01-06T12:27:13;100440.00;;;4.10
33877;BMP180;20166;51.738;7.158;2024-01-06T12:30:00;100453.00;;;4.30
33877;BMP180;20166;51.738;7.158;2024-01-06T12:32:49;100455.00;;;4.30
33877;BMP180;20166;51.738;7.158;2024-01-06T12:35:38;100456.00;;;4.40
33877;BMP180;20166;51.738;7.158;2024-01-06T12:38:24;100456.00;;;4.40
33877;BMP180;20166;51.738;7.158;2024-01-06T12:41:14;100458.00;;;4.30
33877;BMP180;20166;51.738;7.158;2024-01-06T12:44:01;100459.00;;;4.30
33877;BMP180;20166;51.738;7.158;2024-01-06T12:46:47;100463.00;;;4.30
33877;BMP180;20166;51.738;7.158;2024-01-06T12:49:34;100463.00;;;4.20
33877;BMP180;20166;51.738;7.158;2024-01-06T12:52:23;100468.00;;;4.20
33877;BMP180;20166;51.738;7.158;2024-01-06T12:55:10;100465.00;;;4.20
33877;BMP180;20166;51.738;7.158;2024-01-06T12:57:57;100472.00;;;4.20
33877;BMP180;20166;51.738;7.158;2024-01-06T13:00:47;100468.00;;;4.20
33877;BMP180;20166;51.738;7.158;2024-01-06T13:03:33;100471.00;;;4.20
33877;BMP180;20166;51.738;7.158;2024-01-06T13:06:20;100468.00;;;4.20
33877;BMP180;20166;51.738;7.158;2024-01-06T13:09:06;100473.00;;;4.10
33877;BMP180;20166;51.738;7.158;2024-01-06T13:11:53;100471.00;;;4.00
33877;BMP180;20166;51.738;7.158;2024-01-06T13:14:42;100470.00;;;4.10
33877;BMP180;20166;51.738;7.158;2024-01-06T13:17:29;100475.00;;;4.20
33877;BMP180;20166;51.738;7.158;2024-01-06T13:20:15;100478.00;;;4.10
33877;BMP180;20166;51.738;7.158;2024-01-06T13:23:02;100486.00;;;4.10
33877;BMP180;20166;51.738;7.158;2024-01-06T13:25:51;100491.00;;;4.10
33877;BMP180;20166;51.738;7.158;2024-01-06T13:28:38;100485.00;;;4.10
33877;BMP180;20166;51.738;7.158;2024-01-06T13:31:26;100487.00;;;4.20
33877;BMP180;20166;51.738;7.158;2024-01-06T13:34:12;100485.00;;;4.10
33877;BMP180;20166;51.738;7.158;2024-01-06T13:36:59;100491.00;;;4.10
33877;BMP180;20166;51.738;7.158;2024-01-06T13:39:45;100494.00;;;4.10
33877;BMP180;20166;51.738;7.158;2024-01-06T13:42:32;100492.00;;;4.10
33877;BMP180;20166;51.738;7.158;2024-01-06T13:45:18;100499.00;;;4.00
33877;BMP180;20166;51.738;7.158;2024-01-06T13:48:07;100507.00;;;4.00
33877;BMP180;20166;51.738;7.158;2024-01-06T13:50:54;100506.00;;;3.90
33877;BMP180;20166;51.738;7.158;2024-01-06T13:53:41;100517.00;;;3.90
33877;BMP180;20166;51.738;7.158;2024-01-06T13:56:28;100520.00;;;3.90
33877;BMP180;20166;51.738;7.158;2024-01-06T13:59:15;100519.00;;;3.80
33877;BMP180;20166;51.738;7.158;2024-01-06T14:02:04;100516.00;;;3.70
33877;BMP180;20166;51.738;7.158;2024-01-06T14:04:54;100520.00;;;3.90
33877;BMP180;20166;51.738;7.158;2024-01-06T14:07:41;100528.00;;;3.90
33877;BMP180;20166;51.738;7.158;2024-01-06T14:10:30;100536.00;;;3.90
33877;BMP180;20166;51.738;7.158;2024-01-06T14:13:16;100530.00;;;4.00
33877;BMP180;20166;51.738;7.158;2024-01-06T14:16:03;100539.00;;;4.00
33877;BMP180;20166;51.738;7.158;2024-01-06T14:18:49;100537.00;;;3.90
33877;BMP180;20166;51.738;7.158;2024-01-06T14:21:37;100552.00;;;4.00
33877;BMP180;20166;51.738;7.158;2024-01-06T14:24:23;100549.00;;;4.00
33877;BMP180;20166;51.738;7.158;2024-01-06T14:27:10;100551.00;;;4.00
33877;BMP180;20166;51.738;7.158;2024-01-06T14:29:56;100552.00;;;4.00
33877;BMP180;20166;51.738;7.158;2024-01-06T14:32:42;100557.00;;;4.00
33877;BMP180;20166;51.738;7.158;2024-01-06T14:35:29;100565.00;;;4.00
33877;BMP180;20166;51.738;7.158;2024-01-06T14:38:16;100558.00;;;4.00
33877;BMP180;20166;51.738;7.158;2024-01-06T14:41:03;100572.00;;;4.00
33877;BMP180;20166;51.738;7.158;2024-01-06T14:43:50;100570.00;;;3.90
33877;BMP180;20166;51.738;7.158;2024-01-06T14:46:36;100571.00;;;3.80
33877;BMP180;20166;51.738;7.158;2024-01-06T14:49:22;100581.00;;;3.80
33877;BMP180;20166;51.738;7.158;2024-01-06T14:52:09;100579.00;;;3.80
33877;BMP180;20166;51.738;7.158;2024-01-06T14:54:57;100580.00;;;3.80
33877;BMP180;20166;51.738;7.158;2024-01-06T14:57:44;100593.00;;;3.80
33877;BMP180;20166;51.738;7.158;2024-01-06T15:00:30;100597.00;;;3.80
33877;BMP180;20166;51.738;7.158;2024-01-06T15:03:16;100600.00;;;3.80
33877;BMP180;20166;51.738;7.158;2024-01-06T15:06:04;100598.00;;;3.80
33877;BMP180;20166;51.738;7.158;2024-01-06T15:08:50;100599.00;;;3.80
33877;BMP180;20166;51.738;7.158;2024-01-06T15:11:37;100604.00;;;3.80
33877;BMP180;20166;51.738;7.158;2024-01-06T15:14:23;100609.00;;;3.70
33877;BMP180;20166;51.738;7.158;2024-01-06T15:17:10;100614.00;;;3.70
33877;BMP180;20166;51.738;7.158;2024-01-06T15:19:57;100622.00;;;3.80
33877;BMP180;20166;51.738;7.158;2024-01-06T15:22:43;100621.00;;;3.90
33877;BMP180;20166;51.738;7.158;2024-01-06T15:25:30;100628.00;;;3.90
33877;BMP180;20166;51.738;7.158;2024-01-06T15:28:17;100627.00;;;3.90
33877;BMP180;20166;51.738;7.158;2024-01-06T15:31:04;100636.00;;;3.90
33877;BMP180;20166;51.738;7.158;2024-01-06T15:33:50;100636.00;;;3.90
33877;BMP180;20166;51.738;7.158;2024-01-06T15:36:37;100650.00;;;3.80
33877;BMP180;20166;51.738;7.158;2024-01-06T15:39:23;100647.00;;;3.80
33877;BMP180;20166;51.738;7.158;2024-01-06T15:42:10;100644.00;;;3.80
33877;BMP180;20166;51.738;7.158;2024-01-06T15:44:58;100655.00;;;3.90
33877;BMP180;20166;51.738;7.158;2024-01-06T15:47:45;100658.00;;;3.90
33877;BMP180;20166;51.738;7.158;2024-01-06T15:50:31;100658.00;;;3.80
33877;BMP180;20166;51.738;7.158;2024-01-06T15:53:17;100669.00;;;3.80
33877;BMP180;20166;51.738;7.158;2024-01-06T15:56:04;100668.00;;;3.80
33877;BMP180;20166;51.738;7.158;2024-01-06T15:58:50;100663.00;;;3.80
33877;BMP180;20166;51.738;7.158;2024-01-06T16:01:40;100670.00;;;3.80
33877;BMP180;20166;51.738;7.158;2024-01-06T16:04:27;100673.00;;;3.70
33877;BMP180;20166;51.738;7.158;2024-01-06T16:07:13;100680.00;;;3.70